Time;durP1;ratioP1;P1;durP2;ratioP2;P2;SDS_P1;SDS_P2;PMS_P1;PMS_P2;Temp;Humidity;BMP_temperature;BMP_pressure;BME280_temperature;BME280_humidity;BME280_pressure;Samples;Min_cycle;Max_cycle;Signal;HPM_P1;HPM_P2
2022/03/11 00:00:16;;;;;;;19.77;12.47;;;;;;;;;;5113084;28;20515;-77
2022/03/11 00:02:42;;;;;;;21.07;11.47;;;;;;;;;;5115460;28;20923;-77
2022/03/11 00:05:08;;;;;;;28.80;10.67;;;;;;;;;;5117269;28;20511;-77
2022/03/11 00:07:34;;;;;;;20.20;10.20;;;;;;;;;;5116998;28;20412;-77
2022/03/11 00:10:00;;;;;;;19.90;11.57;;;;;;;;;;5117357;28;20510;-76
2022/03/11 00:12:26;;;;;;;18.33;12.30;;;;;;;;;;5117079;28;20439;-76
2022/03/11 00:14:52;;;;;;;16.90;12.03;;;;;;;;;;5117391;28;20482;-77
2022/03/11 00:17:18;;;;;;;18.83;11.10;;;;;;;;;;5117004;28;20422;-77
2022/03/11 00:19:44;;;;;;;16.07;11.87;;;;;;;;;;5117042;28;20460;-76
2022/03/11 00:22:11;;;;;;;17.40;11.17;;;;;;;;;;5116918;28;20875;-76
2022/03/11 00:24:37;;;;;;;14.10;11.73;;;;;;;;;;5117061;28;20419;-76
2022/03/11 00:27:03;;;;;;;16.70;10.80;;;;;;;;;;5116708;28;20407;-76
2022/03/11 00:29:29;;;;;;;14.27;11.27;;;;;;;;;;5116667;28;20428;-76
2022/03/11 00:31:55;;;;;;;18.67;10.37;;;;;;;;;;5116744;28;20881;-76
2022/03/11 00:34:21;;;;;;;15.70;10.87;;;;;;;;;;5116282;28;20445;-76
2022/03/11 00:36:47;;;;;;;20.77;12.93;;;;;;;;;;5116421;28;20423;-76
2022/03/11 00:39:13;;;;;;;21.70;11.87;;;;;;;;;;5116519;28;20957;-76
2022/03/11 00:41:39;;;;;;;17.20;11.27;;;;;;;;;;5116343;28;20426;-76
2022/03/11 00:44:05;;;;;;;34.93;11.87;;;;;;;;;;5116600;28;20458;-76
2022/03/11 00:46:31;;;;;;;21.40;12.60;;;;;;;;;;5116271;28;20495;-76
2022/03/11 00:48:57;;;;;;;19.03;12.23;;;;;;;;;;5115845;28;20893;-76
2022/03/11 00:51:23;;;;;;;23.27;12.87;;;;;;;;;;5116017;28;20419;-76
2022/03/11 00:53:49;;;;;;;17.33;12.73;;;;;;;;;;5097870;28;20432;-76
2022/03/11 00:56:15;;;;;;;19.30;12.37;;;;;;;;;;5116155;28;20466;-76
2022/03/11 00:58:41;;;;;;;18.80;12.40;;;;;;;;;;5116333;28;20513;-76
2022/03/11 01:01:07;;;;;;;17.93;12.90;;;;;;;;;;5116020;28;20419;-76
2022/03/11 01:06:36;;;;;;;20.30;13.23;;;;;;;;;;5115735;28;20440;-76
2022/03/11 01:09:03;;;;;;;20.33;13.27;;;;;;;;;;5116442;28;20404;-76
2022/03/11 01:11:29;;;;;;;21.43;13.80;;;;;;;;;;5115921;28;20420;-76
2022/03/11 01:13:56;;;;;;;19.10;13.23;;;;;;;;;;5115216;28;20411;-76
2022/03/11 01:16:23;;;;;;;28.23;14.73;;;;;;;;;;5116157;28;20599;-76
2022/03/11 01:18:49;;;;;;;24.67;13.97;;;;;;;;;;5116069;28;20411;-76
2022/03/11 01:21:15;;;;;;;29.07;16.37;;;;;;;;;;5115497;28;20805;-76
2022/03/11 01:23:40;;;;;;;24.53;15.03;;;;;;;;;;5115711;28;20400;-76
2022/03/11 01:26:07;;;;;;;29.00;14.80;;;;;;;;;;5115402;28;20861;-76
2022/03/11 01:28:33;;;;;;;19.30;13.60;;;;;;;;;;5115897;28;20414;-76
2022/03/11 01:30:59;;;;;;;31.20;14.90;;;;;;;;;;5115377;28;20400;-76
2022/03/11 01:33:25;;;;;;;27.10;14.57;;;;;;;;;;5115215;28;20828;-76
2022/03/11 01:35:51;;;;;;;23.33;13.27;;;;;;;;;;5114946;28;20988;-76
2022/03/11 01:38:17;;;;;;;23.20;14.87;;;;;;;;;;5115658;28;20415;-76
2022/03/11 01:40:43;;;;;;;23.83;14.03;;;;;;;;;;5115524;28;20781;-76
2022/03/11 01:43:16;;;;;;;25.97;14.27;;;;;;;;;;5115567;28;20415;-76
2022/03/11 01:45:42;;;;;;;23.10;14.60;;;;;;;;;;5114958;28;20405;-76
2022/03/11 01:48:10;;;;;;;19.87;13.33;;;;;;;;;;5114938;28;20451;-76
2022/03/11 01:50:36;;;;;;;30.00;14.13;;;;;;;;;;5114723;28;20798;-76
2022/03/11 01:53:02;;;;;;;17.87;12.10;;;;;;;;;;5115446;28;20411;-76
2022/03/11 01:55:28;;;;;;;18.90;12.33;;;;;;;;;;5115409;28;20498;-76
2022/03/11 01:57:54;;;;;;;18.17;13.40;;;;;;;;;;5115087;28;20779;-76
2022/03/11 02:00:20;;;;;;;16.73;12.07;;;;;;;;;;5114917;28;20420;-76
2022/03/11 02:02:46;;;;;;;24.87;13.60;;;;;;;;;;5114977;28;20956;-76
2022/03/11 02:05:14;;;;;;;23.70;13.67;;;;;;;;;;5114717;28;20415;-76
2022/03/11 02:07:40;;;;;;;22.60;12.87;;;;;;;;;;5115183;28;20466;-76
2022/03/11 02:10:06;;;;;;;25.53;14.53;;;;;;;;;;5115126;28;20424;-76
2022/03/11 02:12:37;;;;;;;18.10;13.20;;;;;;;;;;5114869;28;20831;-76
2022/03/11 02:15:07;;;;;;;29.40;12.87;;;;;;;;;;5114894;28;20451;-76
2022/03/11 02:17:33;;;;;;;17.53;12.60;;;;;;;;;;5114615;28;20427;-76
2022/03/11 02:19:59;;;;;;;18.80;12.70;;;;;;;;;;5115209;28;20420;-76
2022/03/11 02:22:26;;;;;;;22.20;12.77;;;;;;;;;;5114738;28;20431;-76
2022/03/11 02:24:52;;;;;;;21.23;12.53;;;;;;;;;;5113513;28;20416;-76
2022/03/11 02:27:18;;;;;;;28.53;13.50;;;;;;;;;;5114255;28;20435;-76
2022/03/11 02:29:44;;;;;;;17.47;12.13;;;;;;;;;;5114189;28;20506;-76
2022/03/11 02:32:10;;;;;;;20.13;12.53;;;;;;;;;;5114690;28;20476;-76
2022/03/11 02:34:38;;;;;;;23.30;13.70;;;;;;;;;;5114617;28;20412;-76
2022/03/11 02:37:04;;;;;;;16.73;12.00;;;;;;;;;;5114314;28;20469;-76
2022/03/11 02:39:30;;;;;;;17.63;12.60;;;;;;;;;;5114227;28;20416;-76
2022/03/11 02:41:57;;;;;;;22.53;14.00;;;;;;;;;;5114238;28;20424;-76
2022/03/11 02:44:24;;;;;;;30.47;14.90;;;;;;;;;;5114108;28;20925;-76
2022/03/11 02:46:50;;;;;;;33.37;14.50;;;;;;;;;;5114141;28;20783;-76
2022/03/11 02:49:16;;;;;;;19.60;10.97;;;;;;;;;;5114084;28;20498;-76
2022/03/11 02:51:42;;;;;;;20.60;12.23;;;;;;;;;;5113923;28;20461;-76
2022/03/11 02:54:08;;;;;;;19.63;10.90;;;;;;;;;;5113990;28;20419;-76
2022/03/11 02:56:34;;;;;;;14.60;10.87;;;;;;;;;;5113842;28;20507;-76
2022/03/11 02:59:00;;;;;;;23.67;11.67;;;;;;;;;;5114150;28;20416;-76
2022/03/11 03:01:26;;;;;;;17.80;11.57;;;;;;;;;;5113993;28;20430;-76
2022/03/11 03:03:52;;;;;;;18.37;12.13;;;;;;;;;;5114003;28;20900;-76
2022/03/11 03:06:18;;;;;;;18.43;11.53;;;;;;;;;;5114014;28;20774;-76
2022/03/11 03:08:44;;;;;;;16.73;11.50;;;;;;;;;;5113824;28;20861;-76
2022/03/11 03:11:10;;;;;;;16.40;10.90;;;;;;;;;;5113778;28;20459;-76
2022/03/11 03:13:36;;;;;;;13.27;11.30;;;;;;;;;;5113875;28;20422;-76
2022/03/11 03:16:02;;;;;;;15.60;11.37;;;;;;;;;;5113453;28;20984;-76
2022/03/11 03:18:29;;;;;;;25.40;12.10;;;;;;;;;;5113785;28;20412;-77
2022/03/11 03:20:55;;;;;;;28.20;12.27;;;;;;;;;;5113885;28;20455;-76
2022/03/11 03:23:21;;;;;;;20.43;10.60;;;;;;;;;;5113819;28;20416;-76
2022/03/11 03:25:46;;;;;;;18.07;12.33;;;;;;;;;;5113699;28;20420;-76
2022/03/11 03:28:12;;;;;;;19.30;12.10;;;;;;;;;;5113820;28;20769;-76
2022/03/11 03:30:38;;;;;;;24.27;13.50;;;;;;;;;;5113396;28;20944;-76
2022/03/11 03:33:04;;;;;;;27.40;16.13;;;;;;;;;;5113609;28;20786;-76
2022/03/11 03:35:30;;;;;;;40.07;18.40;;;;;;;;;;5113061;28;20468;-76
2022/03/11 03:37:56;;;;;;;27.70;15.97;;;;;;;;;;5113455;28;20419;-76
2022/03/11 03:40:22;;;;;;;48.93;16.13;;;;;;;;;;5113653;28;20447;-75
2022/03/11 03:42:48;;;;;;;29.47;16.10;;;;;;;;;;5113352;28;20901;-76
2022/03/11 03:45:14;;;;;;;27.77;14.57;;;;;;;;;;5113663;28;20423;-76
2022/03/11 03:47:40;;;;;;;22.70;13.90;;;;;;;;;;5113407;28;20418;-76
2022/03/11 03:50:06;;;;;;;17.13;11.63;;;;;;;;;;5112971;28;20463;-76
2022/03/11 03:52:33;;;;;;;20.87;13.20;;;;;;;;;;5113252;28;20412;-76
2022/03/11 03:54:59;;;;;;;25.57;14.33;;;;;;;;;;5113191;28;20487;-76
2022/03/11 03:57:27;;;;;;;19.63;13.80;;;;;;;;;;5113018;28;20917;-76
2022/03/11 03:59:53;;;;;;;29.07;16.10;;;;;;;;;;5113343;28;20419;-76
2022/03/11 04:02:19;;;;;;;35.80;19.60;;;;;;;;;;5094989;28;20408;-76
2022/03/11 04:04:45;;;;;;;33.37;17.80;;;;;;;;;;5113730;28;20480;-76
2022/03/11 04:07:11;;;;;;;34.03;16.80;;;;;;;;;;5113252;28;20766;-76
2022/03/11 04:09:37;;;;;;;145.33;51.07;;;;;;;;;;5113004;28;20412;-75
2022/03/11 04:12:03;;;;;;;28.33;14.77;;;;;;;;;;5094924;28;20431;-76
2022/03/11 04:14:29;;;;;;;31.03;17.50;;;;;;;;;;5112985;28;20842;-75
2022/03/11 04:16:55;;;;;;;30.93;15.80;;;;;;;;;;5112979;28;21109;-75
2022/03/11 04:19:21;;;;;;;32.40;14.67;;;;;;;;;;5113022;28;20416;-75
2022/03/11 04:21:47;;;;;;;35.83;17.27;;;;;;;;;;5112706;28;20431;-75
2022/03/11 04:24:14;;;;;;;28.20;15.63;;;;;;;;;;5112864;28;20416;-76
2022/03/11 04:26:44;;;;;;;31.53;15.80;;;;;;;;;;5113201;28;20431;-76
2022/03/11 04:29:10;;;;;;;26.20;15.90;;;;;;;;;;5112888;28;20408;-75
2022/03/11 04:31:36;;;;;;;27.53;16.13;;;;;;;;;;5112822;28;20909;-75
2022/03/11 04:34:04;;;;;;;36.17;16.93;;;;;;;;;;5112723;28;20446;-75
2022/03/11 04:36:33;;;;;;;31.63;15.20;;;;;;;;;;5112735;28;20475;-75
2022/03/11 04:38:59;;;;;;;31.10;13.77;;;;;;;;;;5112879;28;20416;-75
2022/03/11 04:41:25;;;;;;;16.30;11.47;;;;;;;;;;5113162;28;20450;-75
2022/03/11 04:43:51;;;;;;;19.10;12.63;;;;;;;;;;5113101;28;20773;-75
2022/03/11 04:46:17;;;;;;;22.27;12.90;;;;;;;;;;5112857;28;20921;-75
2022/03/11 04:48:44;;;;;;;20.70;12.40;;;;;;;;;;5114841;28;20471;-75
2022/03/11 04:51:10;;;;;;;18.30;12.60;;;;;;;;;;5116643;28;20522;-75
2022/03/11 04:53:36;;;;;;;20.33;12.10;;;;;;;;;;5116547;28;20789;-75
2022/03/11 04:56:02;;;;;;;15.37;11.23;;;;;;;;;;5116220;28;20554;-75
2022/03/11 04:58:28;;;;;;;22.87;13.60;;;;;;;;;;5116287;28;20410;-75
2022/03/11 05:00:54;;;;;;;18.23;11.90;;;;;;;;;;5116803;28;20757;-76
2022/03/11 05:03:20;;;;;;;22.47;14.20;;;;;;;;;;5116586;28;20486;-75
2022/03/11 05:05:46;;;;;;;20.93;11.60;;;;;;;;;;5116224;28;20416;-75
2022/03/11 05:08:12;;;;;;;16.60;11.23;;;;;;;;;;5116164;28;20422;-75
2022/03/11 05:10:38;;;;;;;18.50;11.30;;;;;;;;;;5116119;28;20491;-75
2022/03/11 05:13:04;;;;;;;21.50;13.90;;;;;;;;;;5116232;28;20462;-75
2022/03/11 05:15:30;;;;;;;27.27;15.50;;;;;;;;;;5116045;28;20597;-75
2022/03/11 05:17:56;;;;;;;34.83;18.87;;;;;;;;;;5115882;28;20423;-74
2022/03/11 05:20:22;;;;;;;43.23;19.17;;;;;;;;;;5115864;28;20407;-75
2022/03/11 05:22:48;;;;;;;40.57;21.40;;;;;;;;;;5115772;28;20909;-75
2022/03/11 05:25:14;;;;;;;36.00;18.83;;;;;;;;;;5115464;28;20416;-75
2022/03/11 05:27:40;;;;;;;40.50;21.10;;;;;;;;;;5115557;28;20412;-75
2022/03/11 05:30:06;;;;;;;36.90;20.13;;;;;;;;;;5115679;28;20420;-75
2022/03/11 05:32:32;;;;;;;56.93;24.93;;;;;;;;;;5115380;28;20416;-75
2022/03/11 05:34:59;;;;;;;53.87;25.30;;;;;;;;;;5115799;28;20632;-75
2022/03/11 05:37:25;;;;;;;60.67;27.37;;;;;;;;;;5115536;28;20412;-75
2022/03/11 05:39:51;;;;;;;71.60;29.47;;;;;;;;;;5115493;28;20411;-75
2022/03/11 05:42:17;;;;;;;70.83;30.13;;;;;;;;;;5115236;28;20419;-75
2022/03/11 05:44:43;;;;;;;65.67;27.87;;;;;;;;;;5115483;28;20407;-75
2022/03/11 05:47:09;;;;;;;56.33;22.23;;;;;;;;;;5115259;28;20414;-75
2022/03/11 05:49:35;;;;;;;38.43;17.37;;;;;;;;;;5115167;28;20460;-75
2022/03/11 05:52:01;;;;;;;33.87;18.13;;;;;;;;;;5115475;28;20464;-75
2022/03/11 05:54:27;;;;;;;32.03;16.57;;;;;;;;;;5115301;28;20488;-75
2022/03/11 05:56:54;;;;;;;32.60;17.10;;;;;;;;;;5115070;28;20973;-75
2022/03/11 05:59:21;;;;;;;41.90;19.33;;;;;;;;;;5115233;28;20411;-75
2022/03/11 06:01:47;;;;;;;35.53;17.70;;;;;;;;;;5097006;28;20473;-75
2022/03/11 06:04:13;;;;;;;41.23;19.50;;;;;;;;;;5114875;28;20812;-75
2022/03/11 06:06:39;;;;;;;36.77;16.90;;;;;;;;;;5114955;28;20455;-75
2022/03/11 06:09:08;;;;;;;35.73;18.60;;;;;;;;;;5115116;28;20420;-75
2022/03/11 06:11:34;;;;;;;29.60;16.10;;;;;;;;;;5115097;28;20438;-74
2022/03/11 06:14:00;;;;;;;31.10;13.60;;;;;;;;;;5114650;28;20857;-75
2022/03/11 06:16:26;;;;;;;30.60;14.50;;;;;;;;;;5114656;28;20479;-75
2022/03/11 06:18:52;;;;;;;22.90;13.17;;;;;;;;;;5114891;28;20511;-75
2022/03/11 06:21:18;;;;;;;24.23;14.13;;;;;;;;;;5114943;28;20449;-75
2022/03/11 06:23:44;;;;;;;30.43;16.47;;;;;;;;;;5113375;28;20408;-75
2022/03/11 06:26:10;;;;;;;28.47;17.00;;;;;;;;;;5114518;28;20502;-75
2022/03/11 06:28:36;;;;;;;29.70;14.93;;;;;;;;;;5115000;28;20757;-75
2022/03/11 06:31:02;;;;;;;34.00;15.60;;;;;;;;;;5114712;28;20431;-75
2022/03/11 06:33:28;;;;;;;25.07;13.63;;;;;;;;;;5114342;28;20407;-75
2022/03/11 06:35:54;;;;;;;28.90;16.40;;;;;;;;;;5114351;28;20471;-75
2022/03/11 06:38:20;;;;;;;21.00;13.60;;;;;;;;;;5114499;28;20408;-75
2022/03/11 06:40:49;;;;;;;21.43;10.53;;;;;;;;;;5114616;28;20480;-75
2022/03/11 06:43:15;;;;;;;19.53;11.33;;;;;;;;;;5095794;28;20420;-75
2022/03/11 06:45:41;;;;;;;14.57;10.70;;;;;;;;;;5114435;28;20416;-75
2022/03/11 06:48:07;;;;;;;21.83;11.57;;;;;;;;;;5114033;28;20562;-76
2022/03/11 06:50:33;;;;;;;17.97;10.67;;;;;;;;;;5114358;28;20491;-75
2022/03/11 06:52:59;;;;;;;17.40;10.93;;;;;;;;;;5114305;28;20503;-75
2022/03/11 06:55:25;;;;;;;17.77;11.97;;;;;;;;;;5114293;28;20554;-68
2022/03/11 06:57:51;;;;;;;13.17;9.60;;;;;;;;;;5114265;28;20416;-75
2022/03/11 07:00:17;;;;;;;17.53;11.00;;;;;;;;;;5114164;28;20450;-75
2022/03/11 07:02:43;;;;;;;15.70;10.40;;;;;;;;;;5113859;28;20430;-74
2022/03/11 07:05:09;;;;;;;19.47;10.63;;;;;;;;;;5095672;28;20800;-75
2022/03/11 07:07:36;;;;;;;17.13;9.80;;;;;;;;;;5113831;28;20476;-75
2022/03/11 07:10:03;;;;;;;18.90;10.00;;;;;;;;;;5113783;28;20416;-75
2022/03/11 07:12:31;;;;;;;20.00;10.63;;;;;;;;;;5113615;28;20426;-75
2022/03/11 07:14:58;;;;;;;13.90;9.17;;;;;;;;;;5095443;28;20470;-75
2022/03/11 07:17:24;;;;;;;14.13;8.43;;;;;;;;;;5113789;28;20541;-75
2022/03/11 07:19:50;;;;;;;12.20;8.23;;;;;;;;;;5113506;28;20448;-76
2022/03/11 07:22:16;;;;;;;18.73;9.20;;;;;;;;;;5113493;28;20429;-76
2022/03/11 07:24:44;;;;;;;13.10;8.97;;;;;;;;;;5113574;28;20416;-75
2022/03/11 07:27:10;;;;;;;26.07;8.00;;;;;;;;;;5113035;28;20420;-75
2022/03/11 07:29:36;;;;;;;19.83;9.00;;;;;;;;;;5113139;28;20419;-74
2022/03/11 07:32:02;;;;;;;14.40;7.60;;;;;;;;;;5112963;28;20440;-72
2022/03/11 07:34:28;;;;;;;15.10;8.70;;;;;;;;;;5113226;28;20494;-73
2022/03/11 07:36:54;;;;;;;11.77;7.30;;;;;;;;;;5113237;28;20894;-73
2022/03/11 07:39:21;;;;;;;24.00;8.73;;;;;;;;;;5113283;28;20457;-73
2022/03/11 07:41:49;;;;;;;20.13;8.77;;;;;;;;;;5113245;28;20420;-70
2022/03/11 07:44:15;;;;;;;19.50;8.27;;;;;;;;;;5113328;28;20454;-73
2022/03/11 07:46:41;;;;;;;11.60;8.37;;;;;;;;;;5094862;28;20419;-73
2022/03/11 07:49:07;;;;;;;16.13;8.30;;;;;;;;;;5112940;28;20918;-73
2022/03/11 07:51:33;;;;;;;17.40;9.45;;;;;;;;;;5112855;28;20931;-71
2022/03/11 07:53:59;;;;;;;12.40;9.30;;;;;;;;;;5112906;28;20519;-74
2022/03/11 07:56:25;;;;;;;17.67;10.10;;;;;;;;;;5113062;28;20558;-73
2022/03/11 07:58:54;;;;;;;10.03;8.47;;;;;;;;;;5113289;28;20415;-73
2022/03/11 08:01:20;;;;;;;17.80;7.90;;;;;;;;;;5112733;28;20480;-74
2022/03/11 08:03:46;;;;;;;10.50;7.30;;;;;;;;;;5112993;28;20416;-74
2022/03/11 08:06:12;;;;;;;16.93;8.00;;;;;;;;;;5112888;28;20416;-66
2022/03/11 08:08:38;;;;;;;9.53;7.10;;;;;;;;;;5113594;28;20500;-71
2022/03/11 08:11:04;;;;;;;7.93;6.47;;;;;;;;;;5112682;28;20472;-72
2022/03/11 08:13:30;;;;;;;9.10;6.20;;;;;;;;;;5113091;28;20416;-72
2022/03/11 08:15:56;;;;;;;6.80;5.80;;;;;;;;;;5112744;28;20478;-72
2022/03/11 08:18:22;;;;;;;9.13;5.20;;;;;;;;;;5113250;28;20793;-73
2022/03/11 08:20:49;;;;;;;5.80;5.27;;;;;;;;;;5112702;28;20415;-73
2022/03/11 08:26:18;;;;;;;14.47;6.47;;;;;;;;;;5116888;28;20382;-73
2022/03/11 08:28:44;;;;;;;6.63;6.13;;;;;;;;;;5116823;28;20502;-73
2022/03/11 08:31:10;;;;;;;9.30;7.20;;;;;;;;;;5116378;28;20804;-73
2022/03/11 08:33:39;;;;;;;5.77;5.27;;;;;;;;;;5116394;28;20416;-73
2022/03/11 08:36:06;;;;;;;10.90;6.27;;;;;;;;;;5116260;28;20466;-73
2022/03/11 08:38:32;;;;;;;9.80;6.93;;;;;;;;;;5116630;28;20408;-73
2022/03/11 08:41:00;;;;;;;7.60;6.83;;;;;;;;;;5116425;28;20511;-72
2022/03/11 08:43:26;;;;;;;10.33;7.13;;;;;;;;;;5116372;28;20552;-73
2022/03/11 08:45:52;;;;;;;10.03;6.67;;;;;;;;;;5116595;28;20503;-74
2022/03/11 08:48:18;;;;;;;6.80;6.00;;;;;;;;;;5116239;28;20534;-73
2022/03/11 08:50:44;;;;;;;11.33;7.10;;;;;;;;;;5116100;28;20423;-73
2022/03/11 08:53:10;;;;;;;15.53;7.10;;;;;;;;;;5116264;28;20400;-73
2022/03/11 08:55:37;;;;;;;7.17;6.17;;;;;;;;;;5115815;28;20852;-73
2022/03/11 08:58:04;;;;;;;9.17;6.40;;;;;;;;;;5097812;28;20427;-72
2022/03/11 09:00:30;;;;;;;7.97;7.17;;;;;;;;;;5115746;28;20757;-72
2022/03/11 09:02:56;;;;;;;9.53;7.33;;;;;;;;;;5115976;28;20422;-72
2022/03/11 09:05:22;;;;;;;10.10;7.20;;;;;;;;;;5115636;28;20912;-71
2022/03/11 09:07:49;;;;;;;8.40;7.10;;;;;;;;;;5116129;28;20419;-72
2022/03/11 09:10:18;;;;;;;8.17;7.10;;;;;;;;;;5115931;28;20408;-72
2022/03/11 09:12:43;;;;;;;10.43;8.70;;;;;;;;;;5115731;28;20404;-72
2022/03/11 09:15:10;;;;;;;8.33;7.43;;;;;;;;;;5115417;28;20475;-72
2022/03/11 09:17:37;;;;;;;12.57;8.37;;;;;;;;;;5116103;28;20427;-72
2022/03/11 09:20:03;;;;;;;15.77;9.37;;;;;;;;;;5115754;28;20968;-71
2022/03/11 09:22:33;;;;;;;19.13;8.20;;;;;;;;;;5115859;28;20407;-72
2022/03/11 09:25:00;;;;;;;12.10;9.50;;;;;;;;;;5115685;28;20408;-71
2022/03/11 09:27:28;;;;;;;13.17;8.20;;;;;;;;;;5115723;28;20419;-72
2022/03/11 09:29:55;;;;;;;16.47;9.33;;;;;;;;;;5115782;28;20415;-72
2022/03/11 09:32:21;;;;;;;9.60;8.13;;;;;;;;;;5115595;28;20408;-71
2022/03/11 09:34:47;;;;;;;13.57;9.20;;;;;;;;;;5114881;28;20983;-72
2022/03/11 09:37:13;;;;;;;13.80;9.10;;;;;;;;;;5097337;28;20789;-72
2022/03/11 09:39:39;;;;;;;11.70;8.77;;;;;;;;;;5115708;28;20416;-72
2022/03/11 09:42:06;;;;;;;9.07;7.70;;;;;;;;;;5115169;28;20488;-72
2022/03/11 09:44:32;;;;;;;12.43;7.73;;;;;;;;;;5115160;28;20894;-72
2022/03/11 09:46:58;;;;;;;12.20;8.03;;;;;;;;;;5115362;28;20992;-72
2022/03/11 09:49:24;;;;;;;26.50;8.10;;;;;;;;;;5114788;28;20973;-72
2022/03/11 09:51:50;;;;;;;10.17;8.47;;;;;;;;;;5115514;28;20412;-72
2022/03/11 09:54:16;;;;;;;9.57;8.00;;;;;;;;;;5115068;28;20523;-72
2022/03/11 09:56:42;;;;;;;14.63;8.77;;;;;;;;;;5114985;28;20482;-72
2022/03/11 09:59:09;;;;;;;13.30;9.17;;;;;;;;;;5115016;28;20456;-72
2022/03/11 10:01:35;;;;;;;11.13;7.90;;;;;;;;;;5114670;28;20770;-72
2022/03/11 10:04:05;;;;;;;11.80;7.93;;;;;;;;;;5114817;28;20494;-72
2022/03/11 10:06:40;;;;;;;15.90;11.30;;;;;;;;;;5115143;28;20421;-72
2022/03/11 10:09:07;;;;;;;15.53;9.40;;;;;;;;;;5114890;28;20419;-72
2022/03/11 10:11:34;;;;;;;11.93;8.10;;;;;;;;;;5114756;28;20412;-72
2022/03/11 10:14:08;;;;;;;10.20;8.07;;;;;;;;;;5114927;28;20504;-72
2022/03/11 10:16:34;;;;;;;10.07;8.13;;;;;;;;;;5114391;28;20832;-72
2022/03/11 10:19:08;;;;;;;10.43;7.60;;;;;;;;;;5114641;28;20465;-72
2022/03/11 10:21:41;;;;;;;11.10;7.43;;;;;;;;;;5114893;28;20428;-72
2022/03/11 10:24:08;;;;;;;13.27;8.23;;;;;;;;;;5114519;28;20426;-72
2022/03/11 10:26:37;;;;;;;8.90;7.57;;;;;;;;;;5114692;28;20451;-72
2022/03/11 10:29:05;;;;;;;14.20;8.00;;;;;;;;;;5114255;28;20415;-72
2022/03/11 10:31:34;;;;;;;18.53;8.80;;;;;;;;;;5114199;28;20412;-72
2022/03/11 10:34:12;;;;;;;11.87;8.17;;;;;;;;;;5114019;28;20760;-72
2022/03/11 10:36:46;;;;;;;9.83;7.90;;;;;;;;;;5114390;28;20471;-72
2022/03/11 10:39:13;;;;;;;10.17;7.37;;;;;;;;;;5114240;28;20403;-71
2022/03/11 10:41:38;;;;;;;9.63;8.07;;;;;;;;;;5114156;28;20408;-72
2022/03/11 10:44:04;;;;;;;17.20;7.60;;;;;;;;;;5113967;28;20420;-72
2022/03/11 10:46:30;;;;;;;10.17;8.20;;;;;;;;;;5113353;28;20421;-72
2022/03/11 10:48:56;;;;;;;22.77;9.20;;;;;;;;;;5113977;28;20493;-72
2022/03/11 10:51:26;;;;;;;14.03;8.33;;;;;;;;;;5114297;28;20440;-72
2022/03/11 10:53:53;;;;;;;14.40;8.93;;;;;;;;;;5113595;28;20531;-72
2022/03/11 10:56:25;;;;;;;9.90;7.90;;;;;;;;;;5113938;28;20467;-72
2022/03/11 10:58:51;;;;;;;19.53;9.70;;;;;;;;;;5113990;28;20920;-72
2022/03/11 11:01:34;;;;;;;17.00;8.70;;;;;;;;;;5113938;28;20419;-72
2022/03/11 11:04:00;;;;;;;12.37;7.50;;;;;;;;;;5113941;28;20384;-71
2022/03/11 11:06:27;;;;;;;15.00;9.07;;;;;;;;;;5113915;28;20797;-72
2022/03/11 11:08:53;;;;;;;14.80;9.43;;;;;;;;;;5113645;28;20415;-72
2022/03/11 11:11:19;;;;;;;13.63;9.20;;;;;;;;;;5095305;28;20419;-72
2022/03/11 11:13:45;;;;;;;12.87;8.40;;;;;;;;;;5113885;28;20408;-72
2022/03/11 11:16:11;;;;;;;12.00;9.57;;;;;;;;;;5113612;28;20558;-72
2022/03/11 11:18:39;;;;;;;12.67;9.47;;;;;;;;;;5113799;28;20839;-71
2022/03/11 11:21:08;;;;;;;9.40;8.40;;;;;;;;;;5113362;28;20461;-72
2022/03/11 11:23:34;;;;;;;16.40;8.93;;;;;;;;;;5113214;28;20420;-72
2022/03/11 11:26:00;;;;;;;17.97;10.17;;;;;;;;;;5113342;28;20420;-71
2022/03/11 11:28:26;;;;;;;14.07;9.87;;;;;;;;;;5113564;28;20404;-72
2022/03/11 11:30:53;;;;;;;16.10;8.80;;;;;;;;;;5113524;28;20927;-72
2022/03/11 11:33:20;;;;;;;12.77;8.40;;;;;;;;;;5113268;28;20877;-72
2022/03/11 11:35:46;;;;;;;13.93;8.77;;;;;;;;;;5113552;28;20475;-72
2022/03/11 11:38:30;;;;;;;12.37;8.00;;;;;;;;;;5095128;28;20447;-73
2022/03/11 11:40:58;;;;;;;20.00;11.10;;;;;;;;;;5113686;28;20422;-73
2022/03/11 11:43:27;;;;;;;11.40;8.20;;;;;;;;;;5113910;28;20488;-71
2022/03/11 11:45:58;;;;;;;13.80;9.27;;;;;;;;;;5113003;28;20495;-72
2022/03/11 11:48:41;;;;;;;16.37;10.70;;;;;;;;;;5112905;28;20454;-72
2022/03/11 11:51:08;;;;;;;22.17;10.17;;;;;;;;;;5113215;28;20924;-72
2022/03/11 11:53:35;;;;;;;14.47;10.80;;;;;;;;;;5113337;28;20408;-72
2022/03/11 11:56:01;;;;;;;18.70;12.23;;;;;;;;;;5113083;28;20475;-72
2022/03/11 11:58:32;;;;;;;11.67;8.40;;;;;;;;;;5116903;28;20492;-72
2022/03/11 12:00:58;;;;;;;19.80;11.83;;;;;;;;;;5117111;28;20407;-72
2022/03/11 12:03:47;;;;;;;18.50;11.40;;;;;;;;;;5117248;28;20408;-72
2022/03/11 12:06:33;;;;;;;18.23;10.70;;;;;;;;;;5104034;28;20419;-73
2022/03/11 12:08:59;;;;;;;16.00;10.33;;;;;;;;;;5117151;28;20437;-71
2022/03/11 12:11:37;;;;;;;17.00;10.13;;;;;;;;;;5117284;28;20886;-72
2022/03/11 12:14:04;;;;;;;21.50;11.80;;;;;;;;;;5117421;28;20426;-72
2022/03/11 12:16:50;;;;;;;22.70;11.07;;;;;;;;;;5116967;28;20880;-72
2022/03/11 12:19:48;;;;;;;18.90;11.90;;;;;;;;;;5117353;28;20782;-72
2022/03/11 12:22:21;;;;;;;24.63;12.90;;;;;;;;;;5061533;28;20427;-72
2022/03/11 12:24:58;;;;;;;18.93;12.17;;;;;;;;;;5117365;28;20473;-73
2022/03/11 12:27:43;;;;;;;20.67;12.80;;;;;;;;;;5116733;28;20502;-72
2022/03/11 12:30:10;;;;;;;16.53;9.33;;;;;;;;;;5116754;28;20579;-72
2022/03/11 12:32:38;;;;;;;14.83;9.47;;;;;;;;;;5116676;28;20461;-72
2022/03/11 12:35:05;;;;;;;19.23;11.60;;;;;;;;;;5116525;28;20447;-72
2022/03/11 12:37:32;;;;;;;18.00;10.07;;;;;;;;;;5116554;28;20419;-72
2022/03/11 12:40:00;;;;;;;23.17;11.63;;;;;;;;;;5116882;28;20422;-72
2022/03/11 12:42:36;;;;;;;19.03;10.83;;;;;;;;;;5116263;28;20808;-72
2022/03/11 12:45:02;;;;;;;15.97;11.17;;;;;;;;;;5116588;28;20925;-71
2022/03/11 12:47:35;;;;;;;17.83;11.53;;;;;;;;;;5116228;28;20476;-71
2022/03/11 12:50:01;;;;;;;17.60;11.20;;;;;;;;;;5116145;28;20876;-71
2022/03/11 12:52:35;;;;;;;27.00;12.00;;;;;;;;;;5116520;28;20416;-71
2022/03/11 12:55:01;;;;;;;18.83;12.60;;;;;;;;;;5116655;28;20407;-71
2022/03/11 12:57:27;;;;;;;15.23;10.90;;;;;;;;;;5117217;28;20483;-71
2022/03/11 12:59:53;;;;;;;11.20;8.20;;;;;;;;;;5116430;28;20776;-71
2022/03/11 13:02:19;;;;;;;6.63;5.47;;;;;;;;;;5116263;28;20834;-71
2022/03/11 13:04:45;;;;;;;11.93;8.57;;;;;;;;;;5116156;28;20416;-72
2022/03/11 13:07:16;;;;;;;16.80;12.13;;;;;;;;;;5115761;28;20420;-72
2022/03/11 13:09:42;;;;;;;14.37;10.73;;;;;;;;;;5115418;28;20396;-71
2022/03/11 13:12:21;;;;;;;20.90;11.63;;;;;;;;;;5115848;28;20418;-72
2022/03/11 13:14:47;;;;;;;19.50;11.37;;;;;;;;;;5116187;28;20502;-71
2022/03/11 13:17:13;;;;;;;27.07;11.90;;;;;;;;;;5116480;28;20562;-71
2022/03/11 13:19:44;;;;;;;21.03;12.40;;;;;;;;;;5115916;28;20427;-71
2022/03/11 13:22:12;;;;;;;30.33;14.00;;;;;;;;;;5116164;28;20427;-71
2022/03/11 13:24:38;;;;;;;20.80;12.87;;;;;;;;;;5115265;28;20415;-71
2022/03/11 13:27:08;;;;;;;21.00;11.60;;;;;;;;;;5115706;28;20420;-71
2022/03/11 13:29:43;;;;;;;24.30;12.70;;;;;;;;;;5115638;28;20415;-70
2022/03/11 13:32:09;;;;;;;23.73;13.47;;;;;;;;;;5115908;28;20411;-70
2022/03/11 13:34:35;;;;;;;22.33;12.13;;;;;;;;;;5114965;28;20434;-71
2022/03/11 13:37:11;;;;;;;19.20;11.87;;;;;;;;;;5115131;28;20468;-72
2022/03/11 13:39:37;;;;;;;23.47;12.17;;;;;;;;;;5115239;28;20390;-71
2022/03/11 13:42:03;;;;;;;21.10;12.80;;;;;;;;;;5115214;28;20435;-73
2022/03/11 13:44:39;;;;;;;21.87;13.10;;;;;;;;;;5115452;28;20493;-74
2022/03/11 13:47:10;;;;;;;21.43;12.90;;;;;;;;;;5115591;28;20384;-73
2022/03/11 13:49:40;;;;;;;22.30;12.53;;;;;;;;;;5114954;28;20467;-71
2022/03/11 13:52:06;;;;;;;26.47;12.83;;;;;;;;;;5115173;28;20495;-71
2022/03/11 13:54:34;;;;;;;22.10;13.90;;;;;;;;;;5115424;28;20438;-71
2022/03/11 13:57:18;;;;;;;32.20;18.47;;;;;;;;;;5115292;28;20471;-72
2022/03/11 13:59:46;;;;;;;19.07;12.17;;;;;;;;;;5115224;28;20811;-71
2022/03/11 14:02:14;;;;;;;26.47;16.77;;;;;;;;;;5115023;28;20786;-72
2022/03/11 14:04:40;;;;;;;34.97;20.87;;;;;;;;;;5114923;28;20414;-72
2022/03/11 14:07:07;;;;;;;29.27;15.10;;;;;;;;;;5114427;28;20423;-72
2022/03/11 14:09:33;;;;;;;24.50;14.50;;;;;;;;;;5114513;28;20412;-72
2022/03/11 14:11:59;;;;;;;20.67;12.63;;;;;;;;;;5114905;28;20420;-71
2022/03/11 14:14:30;;;;;;;20.37;14.20;;;;;;;;;;5114397;28;20426;-71
2022/03/11 14:16:57;;;;;;;24.20;15.47;;;;;;;;;;5114880;28;20463;-71
2022/03/11 14:19:23;;;;;;;22.17;13.00;;;;;;;;;;5114301;28;20978;-71
2022/03/11 14:21:49;;;;;;;21.07;13.17;;;;;;;;;;5114892;28;20502;-71
2022/03/11 14:24:15;;;;;;;19.07;12.93;;;;;;;;;;5114480;28;20444;-71
2022/03/11 14:26:41;;;;;;;25.97;15.43;;;;;;;;;;5114063;28;20444;-71